Burtons, Mississippi
Current Conditions -  °F | °C
As of 6:35 PM on Thursday 27 Nov 2014 (Local Time) from KCRX Reporting Station
Scattered Clouds Scattered Clouds  
Wind Chill: 36°   Ceiling: Unl
Heat Index: 36°   Visibility: NA
Dew Point: 27°   Wind: 3mph
Humidity: 70%   Direction: 10°N
Pressure: 30.48"   Gusts: NA
Location:  34.6741°N, 88.5234°W
Report Text: KCRX 280035Z AUTO 01003KT SCT033 02/M03 A3048 RMK AO2
Loading
Personal Weather Stations






























Interactive Weather Map New forecast layout! Learn more

10-Day Weather Forecast

Advertisements
Track Severe Weather on mobile